sensor_id;sensor_type;location;lat;lon;timestamp;P1;durP1;ratioP1;P2;durP2;ratioP2
58784;SDS011;44557;51.862;19.378;2023-03-01T00:00:38;72.40;;;46.00;;
58784;SDS011;44557;51.862;19.378;2023-03-01T00:02:55;79.50;;;50.30;;
58784;SDS011;44557;51.862;19.378;2023-03-01T00:04:56;75.30;;;46.10;;
58784;SDS011;44557;51.862;19.378;2023-03-01T00:06:57;84.00;;;51.80;;
58784;SDS011;44557;51.862;19.378;2023-03-01T00:08:58;84.70;;;53.40;;
58784;SDS011;44557;51.862;19.378;2023-03-01T00:11:21;86.00;;;52.90;;
58784;SDS011;44557;51.862;19.378;2023-03-01T00:13:24;90.20;;;56.40;;
58784;SDS011;44557;51.862;19.378;2023-03-01T00:15:25;88.70;;;55.60;;
58784;SDS011;44557;51.862;19.378;2023-03-01T00:17:27;87.70;;;55.00;;
58784;SDS011;44557;51.862;19.378;2023-03-01T00:19:28;94.80;;;59.60;;
58784;SDS011;44557;51.862;19.378;2023-03-01T00:21:30;92.00;;;58.70;;
58784;SDS011;44557;51.862;19.378;2023-03-01T00:23:31;80.20;;;51.40;;
58784;SDS011;44557;51.862;19.378;2023-03-01T00:25:40;93.30;;;59.20;;
58784;SDS011;44557;51.862;19.378;2023-03-01T00:27:42;90.40;;;55.30;;
58784;SDS011;44557;51.862;19.378;2023-03-01T00:29:43;87.10;;;55.80;;
58784;SDS011;44557;51.862;19.378;2023-03-01T00:31:44;72.30;;;46.60;;
58784;SDS011;44557;51.862;19.378;2023-03-01T00:33:45;61.00;;;40.40;;
58784;SDS011;44557;51.862;19.378;2023-03-01T00:35:46;73.40;;;47.70;;
58784;SDS011;44557;51.862;19.378;2023-03-01T00:37:47;63.80;;;43.20;;
58784;SDS011;44557;51.862;19.378;2023-03-01T00:39:48;53.40;;;34.90;;
58784;SDS011;44557;51.862;19.378;2023-03-01T00:41:49;59.80;;;38.60;;
58784;SDS011;44557;51.862;19.378;2023-03-01T00:43:51;59.60;;;39.90;;
58784;SDS011;44557;51.862;19.378;2023-03-01T00:45:52;63.90;;;41.40;;
58784;SDS011;44557;51.862;19.378;2023-03-01T00:47:53;66.20;;;43.90;;
58784;SDS011;44557;51.862;19.378;2023-03-01T00:49:54;58.70;;;38.90;;
58784;SDS011;44557;51.862;19.378;2023-03-01T00:51:55;53.70;;;36.10;;
58784;SDS011;44557;51.862;19.378;2023-03-01T00:53:57;61.20;;;38.70;;
58784;SDS011;44557;51.862;19.378;2023-03-01T00:56:01;51.10;;;34.40;;
58784;SDS011;44557;51.862;19.378;2023-03-01T00:58:03;54.50;;;35.90;;
58784;SDS011;44557;51.862;19.378;2023-03-01T01:00:05;50.50;;;33.60;;
58784;SDS011;44557;51.862;19.378;2023-03-01T01:02:07;42.90;;;28.40;;
58784;SDS011;44557;51.862;19.378;2023-03-01T01:04:09;45.10;;;30.10;;
58784;SDS011;44557;51.862;19.378;2023-03-01T01:06:13;43.60;;;29.70;;
58784;SDS011;44557;51.862;19.378;2023-03-01T01:08:15;44.90;;;30.00;;
58784;SDS011;44557;51.862;19.378;2023-03-01T01:10:16;49.50;;;32.80;;
58784;SDS011;44557;51.862;19.378;2023-03-01T01:12:17;51.10;;;32.80;;
58784;SDS011;44557;51.862;19.378;2023-03-01T01:14:18;45.20;;;31.10;;
58784;SDS011;44557;51.862;19.378;2023-03-01T01:16:20;45.20;;;30.80;;
58784;SDS011;44557;51.862;19.378;2023-03-01T01:18:23;39.90;;;28.50;;
58784;SDS011;44557;51.862;19.378;2023-03-01T01:20:24;44.40;;;28.60;;
58784;SDS011;44557;51.862;19.378;2023-03-01T01:22:25;41.00;;;27.30;;
58784;SDS011;44557;51.862;19.378;2023-03-01T01:24:26;42.10;;;28.70;;
58784;SDS011;44557;51.862;19.378;2023-03-01T01:26:29;37.60;;;26.90;;
58784;SDS011;44557;51.862;19.378;2023-03-01T01:28:31;43.00;;;29.20;;
58784;SDS011;44557;51.862;19.378;2023-03-01T01:30:32;42.00;;;28.30;;
58784;SDS011;44557;51.862;19.378;2023-03-01T01:32:33;42.00;;;27.60;;
58784;SDS011;44557;51.862;19.378;2023-03-01T01:34:34;43.00;;;29.50;;
58784;SDS011;44557;51.862;19.378;2023-03-01T01:36:35;43.00;;;28.30;;
58784;SDS011;44557;51.862;19.378;2023-03-01T01:38:37;40.40;;;27.10;;
58784;SDS011;44557;51.862;19.378;2023-03-01T01:40:45;46.30;;;30.60;;
58784;SDS011;44557;51.862;19.378;2023-03-01T01:42:47;48.60;;;32.90;;
58784;SDS011;44557;51.862;19.378;2023-03-01T01:44:48;52.40;;;33.20;;
58784;SDS011;44557;51.862;19.378;2023-03-01T01:47:26;53.70;;;36.50;;
58784;SDS011;44557;51.862;19.378;2023-03-01T01:49:30;66.60;;;40.90;;
58784;SDS011;44557;51.862;19.378;2023-03-01T01:51:39;59.50;;;40.10;;
58784;SDS011;44557;51.862;19.378;2023-03-01T01:53:42;58.50;;;39.60;;
58784;SDS011;44557;51.862;19.378;2023-03-01T01:55:47;69.40;;;42.10;;
58784;SDS011;44557;51.862;19.378;2023-03-01T01:57:56;64.90;;;40.40;;
58784;SDS011;44557;51.862;19.378;2023-03-01T02:00:24;76.20;;;49.40;;
58784;SDS011;44557;51.862;19.378;2023-03-01T02:02:26;61.70;;;40.40;;
58784;SDS011;44557;51.862;19.378;2023-03-01T02:04:28;62.40;;;40.00;;
58784;SDS011;44557;51.862;19.378;2023-03-01T02:06:37;62.80;;;42.00;;
58784;SDS011;44557;51.862;19.378;2023-03-01T02:08:42;74.70;;;48.90;;
58784;SDS011;44557;51.862;19.378;2023-03-01T02:10:46;49.30;;;33.40;;
58784;SDS011;44557;51.862;19.378;2023-03-01T02:12:49;53.00;;;35.70;;
58784;SDS011;44557;51.862;19.378;2023-03-01T02:14:51;66.90;;;43.60;;
58784;SDS011;44557;51.862;19.378;2023-03-01T02:16:53;72.00;;;47.70;;
58784;SDS011;44557;51.862;19.378;2023-03-01T02:18:54;62.90;;;41.50;;
58784;SDS011;44557;51.862;19.378;2023-03-01T02:23:28;69.10;;;45.60;;
58784;SDS011;44557;51.862;19.378;2023-03-01T02:25:47;72.80;;;43.70;;
58784;SDS011;44557;51.862;19.378;2023-03-01T02:28:55;81.60;;;50.30;;
58784;SDS011;44557;51.862;19.378;2023-03-01T02:30:32;54.70;;;34.60;;
58784;SDS011;44557;51.862;19.378;2023-03-01T02:32:34;50.60;;;32.40;;
58784;SDS011;44557;51.862;19.378;2023-03-01T02:34:36;48.70;;;31.90;;
58784;SDS011;44557;51.862;19.378;2023-03-01T02:36:40;57.40;;;36.60;;
58784;SDS011;44557;51.862;19.378;2023-03-01T02:38:57;52.00;;;34.60;;
58784;SDS011;44557;51.862;19.378;2023-03-01T02:41:00;50.30;;;35.10;;
58784;SDS011;44557;51.862;19.378;2023-03-01T02:43:04;48.10;;;33.60;;
58784;SDS011;44557;51.862;19.378;2023-03-01T02:45:10;50.10;;;34.20;;
58784;SDS011;44557;51.862;19.378;2023-03-01T02:47:11;53.50;;;35.00;;
58784;SDS011;44557;51.862;19.378;2023-03-01T02:49:20;55.20;;;36.20;;
58784;SDS011;44557;51.862;19.378;2023-03-01T02:53:48;56.00;;;38.00;;
58784;SDS011;44557;51.862;19.378;2023-03-01T02:56:01;59.30;;;39.30;;
58784;SDS011;44557;51.862;19.378;2023-03-01T02:58:02;52.40;;;34.20;;
58784;SDS011;44557;51.862;19.378;2023-03-01T03:00:05;58.20;;;39.50;;
58784;SDS011;44557;51.862;19.378;2023-03-01T03:02:21;55.40;;;36.40;;
58784;SDS011;44557;51.862;19.378;2023-03-01T03:04:39;54.40;;;35.40;;
58784;SDS011;44557;51.862;19.378;2023-03-01T03:06:41;50.90;;;35.20;;
58784;SDS011;44557;51.862;19.378;2023-03-01T03:08:42;51.10;;;33.90;;
58784;SDS011;44557;51.862;19.378;2023-03-01T03:10:44;52.50;;;34.50;;
58784;SDS011;44557;51.862;19.378;2023-03-01T03:12:49;45.50;;;29.50;;
58784;SDS011;44557;51.862;19.378;2023-03-01T03:14:53;49.80;;;30.40;;
58784;SDS011;44557;51.862;19.378;2023-03-01T03:16:53;47.30;;;32.00;;
58784;SDS011;44557;51.862;19.378;2023-03-01T03:18:55;51.70;;;33.00;;
58784;SDS011;44557;51.862;19.378;2023-03-01T03:21:08;51.60;;;36.10;;
58784;SDS011;44557;51.862;19.378;2023-03-01T03:23:10;50.40;;;33.50;;
58784;SDS011;44557;51.862;19.378;2023-03-01T03:25:12;56.00;;;36.90;;
58784;SDS011;44557;51.862;19.378;2023-03-01T03:27:13;55.40;;;36.00;;
58784;SDS011;44557;51.862;19.378;2023-03-01T03:29:14;56.50;;;36.80;;
58784;SDS011;44557;51.862;19.378;2023-03-01T03:31:16;49.80;;;33.70;;
58784;SDS011;44557;51.862;19.378;2023-03-01T03:33:17;52.50;;;33.80;;
58784;SDS011;44557;51.862;19.378;2023-03-01T03:35:22;52.80;;;34.80;;
58784;SDS011;44557;51.862;19.378;2023-03-01T03:37:25;49.20;;;32.70;;
58784;SDS011;44557;51.862;19.378;2023-03-01T03:39:45;54.40;;;35.00;;
58784;SDS011;44557;51.862;19.378;2023-03-01T03:41:46;44.70;;;30.60;;
58784;SDS011;44557;51.862;19.378;2023-03-01T03:43:47;43.50;;;29.50;;
58784;SDS011;44557;51.862;19.378;2023-03-01T03:45:50;48.50;;;32.00;;
58784;SDS011;44557;51.862;19.378;2023-03-01T03:47:52;45.00;;;31.00;;
58784;SDS011;44557;51.862;19.378;2023-03-01T03:49:52;43.10;;;29.30;;
58784;SDS011;44557;51.862;19.378;2023-03-01T03:51:54;45.20;;;30.10;;
58784;SDS011;44557;51.862;19.378;2023-03-01T03:53:54;45.40;;;30.50;;
58784;SDS011;44557;51.862;19.378;2023-03-01T03:55:55;44.20;;;29.20;;
58784;SDS011;44557;51.862;19.378;2023-03-01T03:57:57;47.60;;;31.30;;
58784;SDS011;44557;51.862;19.378;2023-03-01T04:00:03;47.80;;;31.40;;
58784;SDS011;44557;51.862;19.378;2023-03-01T04:02:06;47.20;;;32.10;;
58784;SDS011;44557;51.862;19.378;2023-03-01T04:04:09;46.20;;;31.70;;
58784;SDS011;44557;51.862;19.378;2023-03-01T04:06:10;53.40;;;34.00;;
58784;SDS011;44557;51.862;19.378;2023-03-01T04:08:11;59.50;;;39.40;;
58784;SDS011;44557;51.862;19.378;2023-03-01T04:10:13;55.90;;;36.50;;
58784;SDS011;44557;51.862;19.378;2023-03-01T04:12:17;58.20;;;37.90;;
58784;SDS011;44557;51.862;19.378;2023-03-01T04:14:23;61.10;;;37.30;;
58784;SDS011;44557;51.862;19.378;2023-03-01T04:16:24;73.50;;;46.20;;
58784;SDS011;44557;51.862;19.378;2023-03-01T04:18:25;66.30;;;41.80;;
58784;SDS011;44557;51.862;19.378;2023-03-01T04:20:28;69.90;;;44.10;;
58784;SDS011;44557;51.862;19.378;2023-03-01T04:22:31;81.60;;;48.40;;
58784;SDS011;44557;51.862;19.378;2023-03-01T04:24:33;67.00;;;40.90;;
58784;SDS011;44557;51.862;19.378;2023-03-01T04:26:34;58.50;;;37.00;;
58784;SDS011;44557;51.862;19.378;2023-03-01T04:28:36;63.20;;;38.80;;
58784;SDS011;44557;51.862;19.378;2023-03-01T04:30:43;79.30;;;50.10;;
58784;SDS011;44557;51.862;19.378;2023-03-01T04:32:44;81.70;;;52.50;;
58784;SDS011;44557;51.862;19.378;2023-03-01T04:34:45;99.10;;;57.40;;
58784;SDS011;44557;51.862;19.378;2023-03-01T04:36:46;101.10;;;60.40;;
58784;SDS011;44557;51.862;19.378;2023-03-01T04:38:47;89.50;;;52.10;;
58784;SDS011;44557;51.862;19.378;2023-03-01T04:40:48;87.40;;;53.30;;
58784;SDS011;44557;51.862;19.378;2023-03-01T04:42:49;91.40;;;55.00;;
58784;SDS011;44557;51.862;19.378;2023-03-01T04:44:50;93.30;;;55.80;;
58784;SDS011;44557;51.862;19.378;2023-03-01T04:46:52;86.30;;;53.30;;
58784;SDS011;44557;51.862;19.378;2023-03-01T04:48:53;84.80;;;50.30;;
58784;SDS011;44557;51.862;19.378;2023-03-01T04:50:54;86.50;;;54.10;;
58784;SDS011;44557;51.862;19.378;2023-03-01T04:52:55;80.70;;;49.90;;
58784;SDS011;44557;51.862;19.378;2023-03-01T04:54:59;90.10;;;55.40;;
58784;SDS011;44557;51.862;19.378;2023-03-01T04:57:00;86.50;;;52.90;;
58784;SDS011;44557;51.862;19.378;2023-03-01T04:59:03;76.90;;;47.60;;
58784;SDS011;44557;51.862;19.378;2023-03-01T05:01:14;79.60;;;49.70;;
58784;SDS011;44557;51.862;19.378;2023-03-01T05:03:20;83.30;;;50.20;;
58784;SDS011;44557;51.862;19.378;2023-03-01T05:05:24;83.40;;;50.20;;
58784;SDS011;44557;51.862;19.378;2023-03-01T05:07:29;79.10;;;49.30;;
58784;SDS011;44557;51.862;19.378;2023-03-01T05:09:30;73.80;;;46.60;;
58784;SDS011;44557;51.862;19.378;2023-03-01T05:11:31;80.40;;;50.30;;
58784;SDS011;44557;51.862;19.378;2023-03-01T05:13:37;82.30;;;51.20;;
58784;SDS011;44557;51.862;19.378;2023-03-01T05:15:38;86.20;;;52.70;;
58784;SDS011;44557;51.862;19.378;2023-03-01T05:17:40;83.00;;;52.80;;
58784;SDS011;44557;51.862;19.378;2023-03-01T05:19:41;92.70;;;58.50;;
58784;SDS011;44557;51.862;19.378;2023-03-01T05:21:49;102.70;;;66.40;;
58784;SDS011;44557;51.862;19.378;2023-03-01T05:24:05;103.90;;;77.30;;
58784;SDS011;44557;51.862;19.378;2023-03-01T05:26:11;108.50;;;75.30;;
58784;SDS011;44557;51.862;19.378;2023-03-01T05:28:13;102.10;;;69.90;;
58784;SDS011;44557;51.862;19.378;2023-03-01T05:30:15;103.70;;;68.90;;
58784;SDS011;44557;51.862;19.378;2023-03-01T05:32:17;97.20;;;61.60;;
58784;SDS011;44557;51.862;19.378;2023-03-01T05:34:19;93.90;;;61.20;;
58784;SDS011;44557;51.862;19.378;2023-03-01T05:36:24;91.00;;;60.20;;
58784;SDS011;44557;51.862;19.378;2023-03-01T05:38:26;89.80;;;59.90;;
58784;SDS011;44557;51.862;19.378;2023-03-01T05:40:26;81.60;;;54.90;;
58784;SDS011;44557;51.862;19.378;2023-03-01T05:42:27;84.40;;;55.20;;
58784;SDS011;44557;51.862;19.378;2023-03-01T05:44:28;84.10;;;54.00;;
58784;SDS011;44557;51.862;19.378;2023-03-01T05:46:29;82.10;;;53.60;;
58784;SDS011;44557;51.862;19.378;2023-03-01T05:48:30;92.10;;;61.70;;
58784;SDS011;44557;51.862;19.378;2023-03-01T05:50:35;91.10;;;59.80;;
58784;SDS011;44557;51.862;19.378;2023-03-01T05:52:39;91.90;;;57.30;;
58784;SDS011;44557;51.862;19.378;2023-03-01T05:54:40;103.20;;;59.20;;
58784;SDS011;44557;51.862;19.378;2023-03-01T05:56:41;91.00;;;57.80;;
58784;SDS011;44557;51.862;19.378;2023-03-01T05:58:42;91.70;;;56.30;;
58784;SDS011;44557;51.862;19.378;2023-03-01T06:00:43;94.00;;;60.30;;
58784;SDS011;44557;51.862;19.378;2023-03-01T06:02:45;88.80;;;56.60;;
58784;SDS011;44557;51.862;19.378;2023-03-01T06:04:46;89.30;;;56.20;;
58784;SDS011;44557;51.862;19.378;2023-03-01T06:06:47;82.10;;;53.20;;
58784;SDS011;44557;51.862;19.378;2023-03-01T06:08:48;78.80;;;49.70;;
58784;SDS011;44557;51.862;19.378;2023-03-01T06:10:49;80.00;;;50.30;;
58784;SDS011;44557;51.862;19.378;2023-03-01T06:12:50;76.20;;;45.20;;
58784;SDS011;44557;51.862;19.378;2023-03-01T06:14:51;80.00;;;46.90;;
58784;SDS011;44557;51.862;19.378;2023-03-01T06:16:51;76.50;;;45.10;;
58784;SDS011;44557;51.862;19.378;2023-03-01T06:18:52;81.20;;;45.70;;
58784;SDS011;44557;51.862;19.378;2023-03-01T06:20:54;71.00;;;43.40;;
58784;SDS011;44557;51.862;19.378;2023-03-01T06:22:56;69.80;;;43.20;;
58784;SDS011;44557;51.862;19.378;2023-03-01T06:24:57;77.50;;;45.60;;
58784;SDS011;44557;51.862;19.378;2023-03-01T06:26:57;73.00;;;44.50;;
58784;SDS011;44557;51.862;19.378;2023-03-01T06:28:58;70.40;;;43.20;;
58784;SDS011;44557;51.862;19.378;2023-03-01T06:30:59;71.10;;;43.90;;
58784;SDS011;44557;51.862;19.378;2023-03-01T06:33:01;75.90;;;44.00;;
58784;SDS011;44557;51.862;19.378;2023-03-01T06:35:04;70.80;;;43.30;;
58784;SDS011;44557;51.862;19.378;2023-03-01T06:37:06;73.20;;;43.50;;
58784;SDS011;44557;51.862;19.378;2023-03-01T06:39:08;69.80;;;42.60;;
58784;SDS011;44557;51.862;19.378;2023-03-01T06:41:09;64.50;;;41.30;;
58784;SDS011;44557;51.862;19.378;2023-03-01T06:43:10;64.70;;;41.10;;
58784;SDS011;44557;51.862;19.378;2023-03-01T06:45:11;61.10;;;39.70;;
58784;SDS011;44557;51.862;19.378;2023-03-01T06:47:12;67.60;;;42.90;;
58784;SDS011;44557;51.862;19.378;2023-03-01T06:49:13;66.00;;;41.60;;
58784;SDS011;44557;51.862;19.378;2023-03-01T06:51:16;69.90;;;40.00;;
58784;SDS011;44557;51.862;19.378;2023-03-01T06:53:17;65.30;;;39.60;;
58784;SDS011;44557;51.862;19.378;2023-03-01T06:55:18;63.00;;;38.60;;
58784;SDS011;44557;51.862;19.378;2023-03-01T06:57:19;69.40;;;41.70;;
58784;SDS011;44557;51.862;19.378;2023-03-01T06:59:20;60.70;;;38.40;;
58784;SDS011;44557;51.862;19.378;2023-03-01T07:01:21;64.70;;;36.70;;
58784;SDS011;44557;51.862;19.378;2023-03-01T07:03:22;62.60;;;35.90;;
58784;SDS011;44557;51.862;19.378;2023-03-01T07:05:24;59.20;;;37.40;;
58784;SDS011;44557;51.862;19.378;2023-03-01T07:07:25;63.90;;;38.00;;
58784;SDS011;44557;51.862;19.378;2023-03-01T07:09:26;56.50;;;36.90;;
58784;SDS011;44557;51.862;19.378;2023-03-01T07:11:27;59.10;;;36.80;;
58784;SDS011;44557;51.862;19.378;2023-03-01T07:13:28;59.60;;;37.80;;
58784;SDS011;44557;51.862;19.378;2023-03-01T07:15:29;61.00;;;37.30;;
58784;SDS011;44557;51.862;19.378;2023-03-01T07:17:30;64.90;;;37.80;;
58784;SDS011;44557;51.862;19.378;2023-03-01T07:19:31;62.40;;;37.60;;
58784;SDS011;44557;51.862;19.378;2023-03-01T07:21:32;62.00;;;37.80;;
58784;SDS011;44557;51.862;19.378;2023-03-01T07:23:34;62.90;;;38.50;;
58784;SDS011;44557;51.862;19.378;2023-03-01T07:25:34;65.30;;;38.10;;
58784;SDS011;44557;51.862;19.378;2023-03-01T07:27:35;67.40;;;40.00;;
58784;SDS011;44557;51.862;19.378;2023-03-01T07:29:37;61.30;;;39.10;;
58784;SDS011;44557;51.862;19.378;2023-03-01T07:31:38;60.30;;;37.90;;
58784;SDS011;44557;51.862;19.378;2023-03-01T07:33:39;60.50;;;37.80;;
58784;SDS011;44557;51.862;19.378;2023-03-01T07:35:43;65.60;;;36.80;;
58784;SDS011;44557;51.862;19.378;2023-03-01T07:37:44;55.70;;;36.00;;
58784;SDS011;44557;51.862;19.378;2023-03-01T07:39:45;56.80;;;34.80;;
58784;SDS011;44557;51.862;19.378;2023-03-01T07:41:45;56.60;;;34.20;;
58784;SDS011;44557;51.862;19.378;2023-03-01T07:43:46;54.50;;;33.50;;
58784;SDS011;44557;51.862;19.378;2023-03-01T07:45:47;54.70;;;33.10;;
58784;SDS011;44557;51.862;19.378;2023-03-01T07:47:49;53.70;;;33.00;;
58784;SDS011;44557;51.862;19.378;2023-03-01T07:49:51;52.90;;;32.00;;
58784;SDS011;44557;51.862;19.378;2023-03-01T07:51:52;54.30;;;33.80;;
58784;SDS011;44557;51.862;19.378;2023-03-01T07:53:53;49.80;;;33.10;;
58784;SDS011;44557;51.862;19.378;2023-03-01T07:56:01;50.00;;;32.40;;
58784;SDS011;44557;51.862;19.378;2023-03-01T07:58:06;47.00;;;31.70;;
58784;SDS011;44557;51.862;19.378;2023-03-01T08:00:07;46.10;;;28.80;;
58784;SDS011;44557;51.862;19.378;2023-03-01T08:02:12;53.50;;;32.10;;
58784;SDS011;44557;51.862;19.378;2023-03-01T08:04:12;49.30;;;30.90;;
58784;SDS011;44557;51.862;19.378;2023-03-01T08:06:14;51.90;;;31.90;;
58784;SDS011;44557;51.862;19.378;2023-03-01T08:08:17;48.80;;;31.10;;
58784;SDS011;44557;51.862;19.378;2023-03-01T08:10:18;49.30;;;31.40;;
58784;SDS011;44557;51.862;19.378;2023-03-01T08:12:18;44.60;;;29.60;;
58784;SDS011;44557;51.862;19.378;2023-03-01T08:14:20;46.40;;;30.80;;
58784;SDS011;44557;51.862;19.378;2023-03-01T08:16:21;44.10;;;28.80;;
58784;SDS011;44557;51.862;19.378;2023-03-01T08:18:22;45.60;;;30.00;;
58784;SDS011;44557;51.862;19.378;2023-03-01T08:20:23;42.50;;;28.40;;
58784;SDS011;44557;51.862;19.378;2023-03-01T08:22:24;45.00;;;29.20;;
58784;SDS011;44557;51.862;19.378;2023-03-01T08:24:25;43.70;;;29.30;;
58784;SDS011;44557;51.862;19.378;2023-03-01T08:26:26;43.20;;;27.00;;
58784;SDS011;44557;51.862;19.378;2023-03-01T08:28:27;41.20;;;26.30;;
58784;SDS011;44557;51.862;19.378;2023-03-01T08:30:28;42.50;;;27.30;;
58784;SDS011;44557;51.862;19.378;2023-03-01T08:32:29;43.20;;;27.90;;
58784;SDS011;44557;51.862;19.378;2023-03-01T08:34:30;39.90;;;26.30;;
58784;SDS011;44557;51.862;19.378;2023-03-01T08:36:32;39.30;;;26.00;;
58784;SDS011;44557;51.862;19.378;2023-03-01T08:38:38;39.10;;;25.00;;
58784;SDS011;44557;51.862;19.378;2023-03-01T08:40:38;37.60;;;26.00;;
58784;SDS011;44557;51.862;19.378;2023-03-01T08:42:40;41.70;;;26.60;;
58784;SDS011;44557;51.862;19.378;2023-03-01T08:44:43;39.50;;;24.40;;
58784;SDS011;44557;51.862;19.378;2023-03-01T08:46:44;37.00;;;23.60;;
58784;SDS011;44557;51.862;19.378;2023-03-01T08:48:46;36.30;;;23.50;;
58784;SDS011;44557;51.862;19.378;2023-03-01T08:50:47;34.60;;;22.90;;
58784;SDS011;44557;51.862;19.378;2023-03-01T08:52:48;34.90;;;22.00;;
58784;SDS011;44557;51.862;19.378;2023-03-01T08:54:49;35.80;;;23.00;;
58784;SDS011;44557;51.862;19.378;2023-03-01T08:56:50;40.50;;;23.50;;
58784;SDS011;44557;51.862;19.378;2023-03-01T08:58:51;35.10;;;21.00;;
58784;SDS011;44557;51.862;19.378;2023-03-01T09:00:52;33.90;;;22.10;;
58784;SDS011;44557;51.862;19.378;2023-03-01T09:02:53;34.70;;;20.80;;
58784;SDS011;44557;51.862;19.378;2023-03-01T09:04:54;31.50;;;19.80;;
58784;SDS011;44557;51.862;19.378;2023-03-01T09:06:55;32.50;;;21.60;;
58784;SDS011;44557;51.862;19.378;2023-03-01T09:08:56;35.60;;;22.10;;
58784;SDS011;44557;51.862;19.378;2023-03-01T09:10:57;36.30;;;22.00;;
58784;SDS011;44557;51.862;19.378;2023-03-01T09:12:58;33.60;;;20.90;;
58784;SDS011;44557;51.862;19.378;2023-03-01T09:14:58;31.30;;;20.40;;
58784;SDS011;44557;51.862;19.378;2023-03-01T09:16:59;32.40;;;20.90;;
58784;SDS011;44557;51.862;19.378;2023-03-01T09:19:03;34.90;;;21.50;;
58784;SDS011;44557;51.862;19.378;2023-03-01T09:21:10;31.30;;;19.90;;
58784;SDS011;44557;51.862;19.378;2023-03-01T09:23:12;32.50;;;21.10;;
58784;SDS011;44557;51.862;19.378;2023-03-01T09:25:13;33.70;;;20.60;;
58784;SDS011;44557;51.862;19.378;2023-03-01T09:27:14;33.70;;;20.20;;
58784;SDS011;44557;51.862;19.378;2023-03-01T09:29:19;32.40;;;19.30;;
58784;SDS011;44557;51.862;19.378;2023-03-01T09:31:20;30.80;;;19.50;;
58784;SDS011;44557;51.862;19.378;2023-03-01T09:33:22;30.20;;;18.80;;
58784;SDS011;44557;51.862;19.378;2023-03-01T09:35:23;28.40;;;17.20;;
58784;SDS011;44557;51.862;19.378;2023-03-01T09:37:25;30.00;;;18.10;;
58784;SDS011;44557;51.862;19.378;2023-03-01T09:39:27;29.00;;;18.00;;
58784;SDS011;44557;51.862;19.378;2023-03-01T09:43:47;22.00;;;13.70;;
58784;SDS011;44557;51.862;19.378;2023-03-01T09:45:54;18.90;;;11.30;;
58784;SDS011;44557;51.862;19.378;2023-03-01T09:48:00;17.30;;;9.70;;
58784;SDS011;44557;51.862;19.378;2023-03-01T09:50:15;16.10;;;8.80;;
58784;SDS011;44557;51.862;19.378;2023-03-01T09:52:21;16.10;;;9.00;;
58784;SDS011;44557;51.862;19.378;2023-03-01T09:54:30;15.50;;;8.80;;
58784;SDS011;44557;51.862;19.378;2023-03-01T09:56:40;16.50;;;9.70;;
58784;SDS011;44557;51.862;19.378;2023-03-01T09:58:58;14.40;;;8.90;;
58784;SDS011;44557;51.862;19.378;2023-03-01T10:06:14;19.10;;;10.90;;
58784;SDS011;44557;51.862;19.378;2023-03-01T10:08:21;18.80;;;10.90;;
58784;SDS011;44557;51.862;19.378;2023-03-01T10:10:28;17.80;;;10.60;;
58784;SDS011;44557;51.862;19.378;2023-03-01T10:12:35;19.50;;;10.80;;
58784;SDS011;44557;51.862;19.378;2023-03-01T10:16:55;18.50;;;11.90;;
58784;SDS011;44557;51.862;19.378;2023-03-01T10:19:00;21.30;;;12.40;;
58784;SDS011;44557;51.862;19.378;2023-03-01T10:21:14;20.60;;;12.30;;
58784;SDS011;44557;51.862;19.378;2023-03-01T10:23:20;23.00;;;12.40;;
58784;SDS011;44557;51.862;19.378;2023-03-01T10:27:39;18.90;;;11.50;;
58784;SDS011;44557;51.862;19.378;2023-03-01T10:29:55;19.70;;;12.20;;
58784;SDS011;44557;51.862;19.378;2023-03-01T10:32:13;19.20;;;11.70;;
58784;SDS011;44557;51.862;19.378;2023-03-01T10:34:28;14.10;;;8.40;;
58784;SDS011;44557;51.862;19.378;2023-03-01T10:36:32;13.50;;;7.70;;
58784;SDS011;44557;51.862;19.378;2023-03-01T10:38:50;11.60;;;7.60;;
58784;SDS011;44557;51.862;19.378;2023-03-01T10:40:58;13.80;;;7.40;;
58784;SDS011;44557;51.862;19.378;2023-03-01T10:43:10;15.40;;;9.00;;
58784;SDS011;44557;51.862;19.378;2023-03-01T10:47:37;12.10;;;7.80;;
58784;SDS011;44557;51.862;19.378;2023-03-01T10:49:37;13.80;;;7.70;;
58784;SDS011;44557;51.862;19.378;2023-03-01T10:51:39;12.60;;;7.10;;
58784;SDS011;44557;51.862;19.378;2023-03-01T10:53:42;16.70;;;8.00;;
58784;SDS011;44557;51.862;19.378;2023-03-01T10:55:58;13.90;;;7.80;;
58784;SDS011;44557;51.862;19.378;2023-03-01T11:00:19;12.90;;;7.20;;
58784;SDS011;44557;51.862;19.378;2023-03-01T11:02:30;12.20;;;6.70;;
58784;SDS011;44557;51.862;19.378;2023-03-01T11:04:34;14.80;;;7.00;;
58784;SDS011;44557;51.862;19.378;2023-03-01T11:06:35;12.20;;;6.00;;
58784;SDS011;44557;51.862;19.378;2023-03-01T11:08:40;12.80;;;6.90;;
58784;SDS011;44557;51.862;19.378;2023-03-01T11:10:43;13.00;;;6.70;;
58784;SDS011;44557;51.862;19.378;2023-03-01T11:12:44;11.60;;;6.70;;
58784;SDS011;44557;51.862;19.378;2023-03-01T11:14:48;10.30;;;5.90;;
58784;SDS011;44557;51.862;19.378;2023-03-01T11:17:11;13.40;;;7.00;;
58784;SDS011;44557;51.862;19.378;2023-03-01T11:19:17;12.30;;;6.80;;
58784;SDS011;44557;51.862;19.378;2023-03-01T11:21:20;12.60;;;6.90;;
58784;SDS011;44557;51.862;19.378;2023-03-01T11:23:21;13.90;;;7.50;;
58784;SDS011;44557;51.862;19.378;2023-03-01T11:25:24;13.40;;;7.60;;
58784;SDS011;44557;51.862;19.378;2023-03-01T11:27:33;12.20;;;7.00;;
58784;SDS011;44557;51.862;19.378;2023-03-01T11:29:38;11.50;;;6.40;;
58784;SDS011;44557;51.862;19.378;2023-03-01T11:31:43;13.10;;;6.60;;
58784;SDS011;44557;51.862;19.378;2023-03-01T11:40:28;12.80;;;7.00;;
58784;SDS011;44557;51.862;19.378;2023-03-01T11:42:46;12.20;;;6.60;;
58784;SDS011;44557;51.862;19.378;2023-03-01T11:44:54;11.60;;;6.20;;
58784;SDS011;44557;51.862;19.378;2023-03-01T11:56:38;14.40;;;7.70;;
58784;SDS011;44557;51.862;19.378;2023-03-01T11:58:56;12.30;;;6.80;;
58784;SDS011;44557;51.862;19.378;2023-03-01T12:03:27;13.80;;;7.60;;
58784;SDS011;44557;51.862;19.378;2023-03-01T12:10:23;11.20;;;6.60;;
58784;SDS011;44557;51.862;19.378;2023-03-01T12:17:25;11.10;;;6.70;;
58784;SDS011;44557;51.862;19.378;2023-03-01T12:29:42;11.80;;;6.70;;
58784;SDS011;44557;51.862;19.378;2023-03-01T12:32:00;13.30;;;7.40;;
58784;SDS011;44557;51.862;19.378;2023-03-01T12:34:11;11.60;;;7.40;;
58784;SDS011;44557;51.862;19.378;2023-03-01T12:38:57;13.10;;;7.50;;
58784;SDS011;44557;51.862;19.378;2023-03-01T12:48:43;15.50;;;7.90;;
58784;SDS011;44557;51.862;19.378;2023-03-01T12:50:50;12.30;;;6.70;;
58784;SDS011;44557;51.862;19.378;2023-03-01T12:52:56;12.10;;;7.00;;
58784;SDS011;44557;51.862;19.378;2023-03-01T12:54:58;14.00;;;7.40;;
58784;SDS011;44557;51.862;19.378;2023-03-01T12:57:07;12.50;;;6.90;;
58784;SDS011;44557;51.862;19.378;2023-03-01T12:59:28;11.60;;;6.40;;
58784;SDS011;44557;51.862;19.378;2023-03-01T13:02:00;12.50;;;6.80;;
58784;SDS011;44557;51.862;19.378;2023-03-01T13:11:15;13.60;;;6.40;;
58784;SDS011;44557;51.862;19.378;2023-03-01T13:13:22;11.20;;;5.80;;